Airport Name : Val De Loire

Other Name : Tours

ICAO : LFOT

IATA : TUF

FAA :

Latitude : 47.432222

Longitude : 0.727606

Country : France

Local Date and Time : 7/16/2019 8:11:00 PM

 

TAF (Terminal Aerodrome Forecast)

TAF LFOT 161700Z 1618/1718 VRB03KT CAVOK BECMG 1712/1714 27004KT

 

METAR (METeorological Aerodrome Report)

LFOT 161800Z AUTO 32004KT 280V010 CAVOK 28/09 Q1016 NOSIG

LFOT 161730Z AUTO 26004KT 220V340 CAVOK 29/08 Q1016 NOSIG

LFOT 161700Z AUTO 35005KT 290V100 CAVOK 28/09 Q1016 NOSIG

LFOT 161630Z AUTO VRB05KT CAVOK 29/10 Q1016 NOSIG

LFOT 161600Z AUTO 31005KT 230V360 CAVOK 28/09 Q1016 NOSIG

LFOT 161530Z AUTO VRB04KT CAVOK 28/09 Q1016 NOSIG

LFOT 161500Z AUTO VRB04KT CAVOK 28/09 Q1017 NOSIG

LFOT 161430Z AUTO 28006KT 230V360 CAVOK 29/10 Q1017 NOSIG